Latest Weather Observations for Forrest

IDW60801

Issued at 9:05 am WST Sunday 23 November 2014 (issued every 30 minutes, with the page automatically refreshed every 10 minutes)

About weather observations | Map of weather stations | Latest weather observations for WA | Other Formats
Station Details ID: 011052 Name: FORREST Lat: -30.85 Lon: 128.11 Height: 159.0 m
Data from the previous 72 hours. | See also: Recent months at Forrest
Date/Time
WST
Temp
°C
App
Temp
°C
Dew
Point
Rel
Hum
%
Delta-T
°C
Wind Press
QNH
hPa
Press
MSL
hPa
Rain
since 9 am
mm
Dir
 
Spd
km/h
Gust
km/h
Spd
kts
Gust
kts
23/09:00am 28.0 22.4 10.2 33 10.1 NE 30 39 16 21 1008.5 1008.0 0.0
23/08:30am 26.4 20.5 10.5 37 9.0 ENE 32 41 17 22 1008.7 - 0.0
23/08:00am 24.6 19.7 11.2 43 7.6 ENE 28 35 15 19 1009.2 - 0.0
23/07:30am 22.8 18.4 11.8 50 6.2 E 26 33 14 18 1009.7 - 0.0
23/07:00am 21.7 17.5 12.5 56 5.2 E 26 33 14 18 1009.7 - 0.0
23/06:30am 20.1 16.0 12.8 63 4.2 E 26 33 14 18 1009.8 - 0.0
23/06:00am 18.5 14.9 13.1 71 3.1 ESE 24 32 13 17 1009.8 1009.3 0.0
23/05:30am 17.0 13.4 13.1 78 2.2 ESE 24 32 13 17 1009.7 - 0.0
23/05:00am 15.8 13.0 13.3 85 1.4 ESE 20 28 11 15 1010.1 - 0.0
23/04:30am 15.0 12.6 12.7 86 1.3 SE 17 22 9 12 1010.2 - 0.0
23/04:00am 14.6 12.4 12.1 85 1.4 SSE 15 20 8 11 1010.0 - 0.0
23/03:30am 14.6 12.3 11.7 83 1.6 SE 15 20 8 11 1009.9 - 0.0
23/03:00am 14.9 12.6 11.7 81 1.7 ESE 15 17 8 9 1010.4 1009.9 0.0
23/02:30am 15.0 13.0 11.4 79 1.9 ESE 13 15 7 8 1010.3 - 0.0
23/02:00am 15.2 13.5 11.2 77 2.2 SE 11 15 6 8 1010.4 - 0.0
23/01:30am 15.5 13.4 11.1 75 2.4 SE 13 15 7 8 1010.2 - 0.0
23/01:00am 16.1 14.0 11.1 72 2.7 ESE 13 17 7 9 1010.2 - 0.0
23/12:30am 16.5 14.0 11.0 70 3.0 ESE 15 17 8 9 1010.1 - 0.0
23/12:00am 16.9 14.4 11.0 68 3.2 ESE 15 20 8 11 1010.2 1009.7 0.0
 
Date/Time
WST
Temp
°C
App
Temp
°C
Dew
Point
Rel
Hum
%
Delta-T
°C
Wind Press
QNH
hPa
Press
MSL
hPa
Rain
since 9 am
mm
Dir
 
Spd
km/h
Gust
km/h
Spd
kts
Gust
kts
22/11:30pm 17.4 14.1 10.8 65 3.6 ESE 19 24 10 13 1010.3 - 0.0
22/11:00pm 17.7 14.1 10.6 63 3.8 E 20 26 11 14 1010.3 - 0.0
22/10:30pm 18.0 13.2 10.4 61 4.1 E 26 32 14 17 1010.3 - 0.0
22/10:00pm 18.3 13.5 10.2 59 4.4 E 26 32 14 17 1010.5 - 0.0
22/09:30pm 18.5 12.9 10.1 58 4.5 ESE 30 39 16 21 1010.5 - 0.0
22/09:00pm 18.7 13.2 10.5 59 4.4 ESE 30 41 16 22 1010.5 1010.0 0.0
22/08:30pm 19.0 13.4 10.3 57 4.7 ESE 30 37 16 20 1010.5 - 0.0
22/08:00pm 19.6 13.3 9.8 53 5.3 ESE 33 44 18 24 1010.4 - 0.0
22/07:30pm 20.0 14.0 10.1 53 5.4 ESE 32 41 17 22 1010.2 - 0.0
22/07:00pm 20.5 13.8 10.9 54 5.3 SE 37 46 20 25 1009.9 - 0.0
22/06:30pm 21.4 14.7 12.3 56 5.2 SE 39 46 21 25 1009.5 - 0.0
22/06:00pm 22.7 16.3 12.0 50 6.1 SE 37 46 20 25 1009.3 1008.8 0.0
22/05:30pm 24.6 17.2 11.2 43 7.6 SE 41 52 22 28 1008.9 - 0.0
22/05:00pm 26.4 19.2 10.5 37 9.0 SE 39 54 21 29 1008.4 - 0.0
22/04:30pm 28.4 21.8 10.1 32 10.4 SE 35 48 19 26 1007.9 - 0.0
22/04:03pm 30.3 24.6 9.8 28 11.6 SE 30 48 16 26 1007.6 - 0.0
22/04:00pm 30.8 25.8 9.6 27 12.0 SE 26 43 14 23 1007.7 - 0.0
22/03:30pm 31.7 28.8 9.8 26 12.5 ESE 15 24 8 13 1007.8 - 0.0
22/03:00pm 32.3 29.7 9.2 24 13.1 SE 13 24 7 13 1007.9 1007.4 0.0
22/02:30pm 32.5 29.1 9.3 24 13.2 ESE 17 24 9 13 1008.1 - 0.0
22/02:00pm 31.6 29.4 9.2 25 12.7 E 11 17 6 9 1008.5 - 0.0
22/01:30pm 31.4 29.7 8.4 24 12.8 W 7 13 4 7 1008.8 - 0.0
22/01:00pm 30.8 28.5 9.1 26 12.2 SSE 11 24 6 13 1009.1 - 0.0
22/12:30pm 30.7 28.2 9.6 27 12.0 SSE 13 32 7 17 1009.1 - 0.0
22/12:00pm 30.7 27.0 9.6 27 12.0 SE 19 24 10 13 1009.4 1008.9 0.0
22/11:30am 30.4 27.3 10.4 29 11.5 E 17 26 9 14 1009.6 - 0.0
22/11:00am 29.5 25.8 9.6 29 11.2 SE 19 30 10 16 1010.1 - 0.0
22/10:30am 28.5 25.5 9.2 30 10.8 E 15 26 8 14 1010.4 - 0.0
22/10:00am 27.9 24.4 10.1 33 10.0 SE 19 33 10 18 1010.7 - 0.0
22/09:30am 27.7 24.6 10.4 34 9.8 SE 17 28 9 15 1010.9 - 0.0
22/09:00am 26.7 23.1 10.0 35 9.4 SE 19 28 10 15 1011.0 1010.6 0.0
22/08:30am 25.8 22.2 10.0 37 8.8 SE 19 28 10 15 1011.0 - 0.0
22/08:00am 25.1 21.6 10.9 41 8.0 SE 20 30 11 16 1011.1 - 0.0
22/07:30am 23.6 20.2 10.6 44 7.2 ESE 19 26 10 14 1011.0 - 0.0
22/07:00am 22.4 19.3 11.5 50 6.1 ESE 19 22 10 12 1010.8 - 0.0
22/06:30am 20.4 18.5 12.9 62 4.3 ESE 15 20 8 11 1010.4 - 0.0
22/06:00am 18.6 17.5 14.3 76 2.5 SE 13 20 7 11 1010.1 1009.6 0.0
22/05:30am 16.8 16.8 14.3 85 1.4 SSE 7 11 4 6 1009.9 - 0.0
22/05:00am 15.0 14.4 13.5 91 0.8 S 9 11 5 6 1009.5 - 0.0
22/04:30am 14.0 12.8 12.7 92 0.7 S 11 11 6 6 1009.1 - 0.0
22/04:00am 13.9 12.6 12.5 91 0.8 SSW 11 11 6 6 1008.9 - 0.0
22/03:30am 14.3 13.1 12.7 90 0.9 SSW 11 13 6 7 1008.7 - 0.0
22/03:00am 14.5 13.2 12.5 88 1.1 S 11 13 6 7 1008.4 1007.9 0.0
22/02:30am 15.1 14.7 13.1 88 1.1 S 7 9 4 5 1008.1 - 0.0
22/02:00am 15.3 15.0 13.3 88 1.1 SE 7 9 4 5 1008.1 - 0.0
22/01:30am 15.6 14.9 13.3 86 1.3 SE 9 11 5 6 1008.2 - 0.0
22/01:00am 16.2 15.2 13.5 84 1.5 SE 11 13 6 7 1008.3 - 0.0
22/12:30am 16.7 15.8 13.8 83 1.7 SE 11 17 6 9 1008.4 - 0.0
22/12:00am 17.1 15.9 14.0 82 1.8 SE 13 17 7 9 1008.5 1008.0 0.0
 
Date/Time
WST
Temp
°C
App
Temp
°C
Dew
Point
Rel
Hum
%
Delta-T
°C
Wind Press
QNH
hPa
Press
MSL
hPa
Rain
since 9 am
mm
Dir
 
Spd
km/h
Gust
km/h
Spd
kts
Gust
kts
21/11:30pm 17.5 15.8 14.6 83 1.7 SSE 17 24 9 13 1008.6 - 0.0
21/11:00pm 17.8 15.9 15.1 84 1.6 SSE 19 24 10 13 1008.9 - 0.0
21/10:30pm 18.1 16.0 15.2 83 1.7 SSE 20 30 11 16 1008.9 - 0.0
21/10:00pm 18.5 16.2 14.6 78 2.3 SSE 20 30 11 16 1008.9 - 0.0
21/09:30pm 19.1 15.5 14.1 73 2.9 SSE 26 39 14 21 1008.8 - 0.0
21/09:00pm 19.7 16.4 12.9 65 3.9 S 22 33 12 18 1008.7 1008.2 0.0
21/08:30pm 20.1 16.0 12.6 62 4.3 S 26 37 14 20 1008.6 - 0.0
21/08:00pm 20.8 15.7 12.0 57 5.0 S 30 44 16 24 1008.2 - 0.0
21/07:30pm 21.3 15.6 11.9 55 5.3 S 33 46 18 25 1007.6 - 0.0
21/07:05pm 22.0 15.9 11.7 52 5.8 S 35 54 19 29 1007.4 - 0.0
21/07:00pm 22.1 15.5 11.5 51 6.0 S 37 54 20 29 1007.4 - 0.0
21/06:30pm 23.0 16.6 12.0 50 6.3 S 37 57 20 31 1006.7 - 0.0
21/06:28pm 23.2 16.8 11.9 49 6.4 S 37 57 20 31 1006.7 - 0.0
21/06:00pm 25.1 18.4 12.3 45 7.4 S 39 54 21 29 1005.9 1005.4 0.0
21/05:30pm 28.5 21.1 12.4 37 9.5 S 43 61 23 33 1005.2 - 0.0
21/05:02pm 30.9 23.5 11.3 30 11.4 S 41 59 22 32 1004.2 - 0.0
21/05:00pm 31.3 23.5 11.1 29 11.8 S 43 59 23 32 1004.1 - 0.0
21/04:55pm 33.5 27.0 10.2 24 13.5 S 35 50 19 27 1003.9 - 0.0
21/04:41pm 36.4 28.2 4.6 14 17.1 SW 37 57 20 31 1003.5 - 0.0
21/04:30pm 37.9 32.5 4.7 13 18.1 W 22 33 12 18 1003.2 - 0.0
21/04:06pm 37.8 31.3 4.7 13 18.0 WNW 28 46 15 25 1003.1 - 0.0
21/04:00pm 37.8 30.3 4.7 13 18.0 WNW 33 46 18 25 1003.1 - 0.0
21/03:30pm 38.5 30.4 5.2 13 18.3 WNW 37 48 20 26 1003.0 - 0.0
21/03:09pm 38.4 31.6 5.1 13 18.3 WNW 30 50 16 27 1003.2 - 0.0
21/03:00pm 39.0 31.7 5.6 13 18.6 W 33 44 18 24 1003.3 1002.8 0.0
21/02:54pm 38.4 30.3 5.1 13 18.3 W 37 48 20 26 1003.3 - 0.0
21/02:42pm 39.2 32.9 5.7 13 18.6 NW 28 46 15 25 1003.3 - 0.0
21/02:30pm 36.9 29.7 5.0 14 17.4 WNW 32 43 17 23 1003.5 - 0.0
21/02:03pm 36.9 29.7 6.0 15 17.1 WNW 33 52 18 28 1004.0 - 0.0
21/02:00pm 37.8 30.2 5.7 14 17.7 WNW 35 52 19 28 1003.9 - 0.0
21/01:30pm 37.8 30.0 6.7 15 17.4 NW 37 57 20 31 1004.2 - 0.0
21/01:00pm 37.6 30.2 6.6 15 17.3 WNW 35 54 19 29 1004.6 - 0.0
21/12:36pm 37.1 30.1 6.2 15 17.1 NW 32 50 17 27 1005.2 - 0.0
21/12:30pm 35.9 29.1 7.0 17 16.1 NW 32 50 17 27 1005.3 - 0.0
21/12:03pm 38.1 31.8 8.8 17 17.0 WNW 32 52 17 28 1005.6 - 0.0
21/12:00pm 37.1 31.1 8.8 18 16.4 WNW 30 50 16 27 1005.7 1005.2 0.0
21/11:34am 36.4 29.9 9.1 19 15.8 NNW 33 54 18 29 1005.9 - 0.0
21/11:30am 36.1 29.8 8.8 19 15.7 NNW 32 44 17 24 1006.2 - 0.0
21/11:18am 35.8 29.6 10.1 21 15.0 NNW 33 52 18 28 1006.4 - 0.0
21/11:00am 35.5 29.4 9.8 21 14.9 NNW 32 48 17 26 1006.7 - 0.0
21/10:59am 35.5 29.6 10.5 22 14.7 NNW 32 50 17 27 1006.8 - 0.0
21/10:30am 35.1 28.7 12.1 25 13.8 NNW 37 54 20 29 1007.2 - 0.0
21/10:14am 34.2 28.3 12.5 27 13.1 N 35 54 19 29 1007.5 - 0.0
21/10:00am 33.7 27.7 13.2 29 12.5 N 37 50 20 27 1007.7 - 0.0
21/09:30am 32.8 26.3 13.9 31 11.6 N 41 52 22 28 1008.1 - 0.0
21/09:00am 30.9 24.7 13.7 35 10.4 N 39 48 21 26 1008.5 1008.0 0.0
21/08:30am 29.5 23.9 14.5 40 9.1 N 37 50 20 27 1008.8 - 0.0
21/08:00am 28.2 22.7 13.7 41 8.7 N 35 46 19 25 1009.1 - 0.0
21/07:30am 26.1 20.5 12.2 42 8.1 NNE 33 43 18 23 1009.3 - 0.0
21/07:00am 24.3 18.2 11.9 45 7.1 NNE 35 43 19 23 1009.5 - 0.0
21/06:30am 22.7 16.9 11.4 49 6.4 NNE 33 41 18 22 1009.5 - 0.0
21/06:00am 20.8 14.3 10.3 51 5.7 NNE 35 44 19 24 1009.4 1008.9 0.0
21/05:30am 19.1 13.9 10.1 56 4.9 NNE 28 33 15 18 1009.5 - 0.0
21/05:00am 17.7 12.9 10.3 62 4.0 NNE 26 32 14 17 1009.5 - 0.0
21/04:30am 16.8 12.3 10.2 65 3.5 NE 24 32 13 17 1009.5 - 0.0
21/04:00am 16.7 12.3 10.3 66 3.4 NE 24 32 13 17 1009.5 - 0.0
21/03:30am 16.8 12.5 10.6 67 3.3 NE 24 30 13 16 1009.5 - 0.0
21/03:00am 16.8 12.7 10.2 65 3.5 NE 22 24 12 13 1009.5 1009.0 0.0
21/02:30am 17.1 13.0 10.0 63 3.8 NE 22 28 12 15 1009.7 - 0.0
21/02:00am 17.1 13.3 9.8 62 3.9 NE 20 26 11 14 1009.8 - 0.0
21/01:30am 17.3 13.4 9.5 60 4.1 NE 20 26 11 14 1009.9 - 0.0
21/01:00am 17.3 13.4 9.5 60 4.1 NE 20 24 11 13 1009.9 - 0.0
21/12:30am 17.6 14.0 9.8 60 4.1 ENE 19 24 10 13 1010.5 - 0.0
21/12:00am 17.8 14.1 10.2 61 4.1 ENE 20 24 11 13 1010.9 1010.4 0.0
 
Date/Time
WST
Temp
°C
App
Temp
°C
Dew
Point
Rel
Hum
%
Delta-T
°C
Wind Press
QNH
hPa
Press
MSL
hPa
Rain
since 9 am
mm
Dir
 
Spd
km/h
Gust
km/h
Spd
kts
Gust
kts
20/11:30pm 18.1 14.4 10.2 60 4.2 ENE 20 28 11 15 1011.2 - 0.0
20/11:00pm 18.4 15.0 10.5 60 4.3 E 19 20 10 11 1011.6 - 0.0
20/10:30pm 18.9 15.9 10.5 58 4.6 E 17 20 9 11 1011.9 - 0.0
20/10:00pm 19.4 16.2 10.1 55 5.0 E 17 22 9 12 1012.0 - 0.0
20/09:30pm 20.2 16.0 9.7 51 5.7 E 22 26 12 14 1012.2 - 0.0
20/09:00pm 20.8 17.1 9.4 48 6.1 E 19 24 10 13 1012.1 1011.6 0.0
20/08:30pm 21.4 17.1 9.3 46 6.5 E 22 26 12 14 1012.0 - 0.0
20/08:00pm 22.2 17.0 9.0 43 7.1 E 26 30 14 16 1011.5 - 0.0
20/07:30pm 23.1 16.8 9.1 41 7.6 ESE 32 39 17 21 1011.2 - 0.0
20/07:10pm 23.7 18.2 9.3 40 7.8 ESE 28 35 15 19 1011.2 - 0.0
20/07:00pm 24.1 21.8 8.9 38 8.2 S 11 11 6 6 1011.0 - 0.0
20/06:30pm 26.5 23.7 7.0 29 10.4 SSW 11 13 6 7 1010.7 - 0.0
20/06:00pm 28.0 26.0 7.3 27 11.2 SW 7 9 4 5 1010.4 1009.9 0.0
20/05:30pm 28.7 25.7 6.1 24 12.0 WSW 11 17 6 9 1010.0 - 0.0
20/05:00pm 29.5 27.4 6.8 24 12.2 SW 7 15 4 8 1009.9 - 0.0
20/04:30pm 29.1 27.0 6.5 24 12.1 E 7 11 4 6 1009.7 - 0.0
20/04:00pm 30.0 27.9 6.6 23 12.6 NW 7 22 4 12 1009.7 - 0.0
20/03:30pm 29.5 26.3 6.8 24 12.2 WSW 13 20 7 11 1010.0 - 0.0
20/03:00pm 29.7 26.5 7.0 24 12.3 WSW 13 24 7 13 1010.3 1009.8 0.0
20/02:30pm 29.5 25.9 6.8 24 12.2 SW 15 24 8 13 1010.5 - 0.0
20/02:00pm 28.8 24.7 6.2 24 12.0 W 17 30 9 16 1010.9 - 0.0
20/01:30pm 27.7 25.9 8.1 29 10.7 N 7 15 4 8 1011.2 - 0.0
20/01:00pm 28.2 26.2 8.5 29 10.8 WNW 9 24 5 13 1011.6 - 0.0
20/12:30pm 27.4 24.2 8.3 30 10.4 W 15 26 8 14 1012.2 - 0.0
20/12:00pm 26.4 23.9 8.4 32 9.8 S 11 17 6 9 1012.6 1012.1 0.0
20/11:30am 26.4 24.4 10.1 36 9.1 W 11 19 6 10 1013.1 - 0.0
20/11:00am 25.2 23.2 10.3 39 8.3 WSW 11 22 6 12 1013.6 - 0.0
20/10:30am 24.2 22.3 10.5 42 7.6 SW 11 19 6 10 1014.1 - 0.0
20/10:00am 23.7 21.6 11.1 45 7.1 SSW 13 20 7 11 1014.5 - 0.0
20/09:30am 23.2 22.0 12.8 52 6.0 S 11 17 6 9 1014.7 - 0.0

Other Formats:

Comma delimited format used in spreadsheet applications
http://www.bom.gov.au/fwo/IDW60801/IDW60801.95646.axf

JavaScript Object Notation format (JSON) in row-major order
http://www.bom.gov.au/fwo/IDW60801/IDW60801.95646.json